Terminal Aerodrome Forecast
Issued by NWS

Home | Current Version | Previous Version | Graphics & Text | Print | Product List | Glossary On
Versions: 1 2 3 4 5 6 7 8 9 10 11 12 13 14 15 16 17 18 19 20 21
000
FTUS43 KBIS 280500 RRA
TAFMOT
TAF
KMOT 280547Z 2806/2906 11010KT P6SM SCT008 OVC015
     FM280900 09009KT P6SM VCSH OVC015
      TEMPO 2809/2812 3SM -SHSN
     FM281300 10008KT P6SM BKN008 OVC015
     FM282000 12010KT P6SM OVC015
     FM290200 17007KT P6SM BKN010 OVC018=

USA.gov is the U.S. government's official web portal to all federal, state and local government web resources and services.